Hancock, Maryland
Current Conditions -  °F | °C
As of 3:53 AM on Thursday 23 Oct 2014 (Local Time) from KMRB Reporting Station
Overcast Overcast  
Wind Chill: 11°   Ceiling: 3200
Heat Index: 11°   Visibility: 10mi
Dew Point:   Wind: 14mph
Humidity: 63%   Direction: 320°NW
Pressure: 29.96"   Gusts: 20mph
Location:  39.7°N, 78.18°W
Report Text: KMRB 230753Z AUTO 32012G17KT 10SM OVC032 11/04 A2996 RMK AO2 SLP146 T01060039 TSNO
Loading
Personal Weather Stations






























Interactive Weather Map
Tropical Storm Tracking
New forecast layout! Learn more

10-Day Weather Forecast

Advertisements
Track Severe Weather on mobile